Time;durP1;ratioP1;P1;durP2;ratioP2;P2;SDS_P1;SDS_P2;PMS_P1;PMS_P2;Temp;Humidity;BMP_temperature;BMP_pressure;BME280_temperature;BME280_humidity;BME280_pressure;Samples;Min_cycle;Max_cycle;Signal;HPM_P1;HPM_P2
2022/09/29 00:01:53;;;;;;;3.45;2.78;;;9.80;81.70;;;;;;5042127;28;20120;-65
2022/09/29 00:04:19;;;;;;;3.58;2.85;;;9.80;81.60;;;;;;5046434;28;20484;-66
2022/09/29 00:06:44;;;;;;;3.42;2.85;;;9.80;81.50;;;;;;5048261;28;20543;-65
2022/09/29 00:09:10;;;;;;;4.47;2.63;;;9.70;81.50;;;;;;5049947;28;20032;-66
2022/09/29 00:11:35;;;;;;;3.05;2.75;;;9.70;81.60;;;;;;5042889;28;20151;-66
2022/09/29 00:14:01;;;;;;;4.18;2.85;;;9.70;81.60;;;;;;5031609;28;20033;-66
2022/09/29 00:16:28;;;;;;;4.10;2.90;;;9.70;81.50;;;;;;5031644;28;20037;-66
2022/09/29 00:18:54;;;;;;;2.80;2.60;;;9.70;81.40;;;;;;5032787;28;20025;-66
2022/09/29 00:21:19;;;;;;;4.25;3.03;;;9.70;81.40;;;;;;5040771;28;20029;-66
2022/09/29 00:23:46;;;;;;;3.10;2.80;;;9.70;81.40;;;;;;5037294;28;20029;-66
2022/09/29 00:26:18;;;;;;;3.00;2.65;;;9.60;81.50;;;;;;5036320;28;20673;-66
2022/09/29 00:28:52;;;;;;;3.13;2.72;;;9.60;81.70;;;;;;5041106;28;20096;-66
2022/09/29 00:31:19;;;;;;;3.40;2.92;;;9.60;81.80;;;;;;5038634;28;20025;-65
2022/09/29 00:33:45;;;;;;;3.15;2.42;;;9.60;81.80;;;;;;5040362;28;20032;-66
2022/09/29 00:36:14;;;;;;;3.20;2.80;;;9.60;81.80;;;;;;5039360;28;20033;-66
2022/09/29 00:38:42;;;;;;;3.45;2.95;;;9.60;81.70;;;;;;5036523;28;20727;-66
2022/09/29 00:41:16;;;;;;;3.88;2.90;;;9.60;81.80;;;;;;5033804;28;20030;-66
2022/09/29 00:43:53;;;;;;;3.65;3.00;;;9.50;81.70;;;;;;5036254;28;20026;-66
2022/09/29 00:46:43;;;;;;;3.35;2.83;;;9.50;81.70;;;;;;5036808;28;20021;-66
2022/09/29 00:49:45;;;;;;;3.20;2.40;;;9.40;81.80;;;;;;5039165;28;20770;-66
2022/09/29 00:52:25;;;;;;;3.05;2.72;;;9.30;81.80;;;;;;5037436;28;20028;-66
2022/09/29 00:54:59;;;;;;;3.75;2.92;;;9.30;82.00;;;;;;5033806;28;20044;-66
2022/09/29 00:57:30;;;;;;;3.17;2.80;;;9.30;81.80;;;;;;5043569;28;20029;-66
2022/09/29 01:00:15;;;;;;;3.38;2.88;;;9.30;81.70;;;;;;5042112;28;20163;-66
2022/09/29 01:03:07;;;;;;;3.17;2.70;;;9.20;81.70;;;;;;5038623;28;20041;-66
2022/09/29 01:05:38;;;;;;;3.40;3.10;;;9.10;81.80;;;;;;5040033;28;20408;-66
2022/09/29 01:08:38;;;;;;;4.88;3.25;;;9.10;81.80;;;;;;5035078;28;20021;-66
2022/09/29 01:11:04;;;;;;;3.70;3.20;;;9.10;82.00;;;;;;5037549;28;20041;-66
2022/09/29 01:13:32;;;;;;;3.50;3.20;;;9.00;82.10;;;;;;5035468;28;20083;-66
2022/09/29 01:15:58;;;;;;;3.60;3.30;;;9.00;82.20;;;;;;5036506;28;20029;-66
2022/09/29 01:18:24;;;;;;;4.50;3.08;;;9.00;82.10;;;;;;5034530;28;20637;-66
2022/09/29 01:21:00;;;;;;;3.20;2.90;;;9.10;82.10;;;;;;5035307;28;20032;-66
2022/09/29 01:23:53;;;;;;;3.20;2.75;;;9.00;82.10;;;;;;5033480;28;20021;-66
2022/09/29 01:26:43;;;;;;;3.72;2.72;;;9.10;82.20;;;;;;5037680;28;20056;-66
2022/09/29 01:29:11;;;;;;;4.75;3.10;;;9.10;82.10;;;;;;5040472;28;20567;-66
2022/09/29 01:31:59;;;;;;;3.53;3.22;;;9.10;82.10;;;;;;5035763;28;20395;-66
2022/09/29 01:34:40;;;;;;;4.65;3.20;;;9.10;82.20;;;;;;5037486;28;20017;-66
2022/09/29 01:37:25;;;;;;;3.23;2.67;;;9.10;82.10;;;;;;5041344;28;20033;-66
2022/09/29 01:40:12;;;;;;;3.28;2.97;;;9.00;81.90;;;;;;5035737;28;20446;-66
2022/09/29 01:43:03;;;;;;;4.75;3.08;;;9.00;81.90;;;;;;5038612;28;20056;-66
2022/09/29 01:45:32;;;;;;;3.78;2.95;;;8.90;81.90;;;;;;5035148;28;21782;-66
2022/09/29 01:48:09;;;;;;;3.42;2.72;;;8.90;81.90;;;;;;5034323;28;20496;-66
2022/09/29 01:50:48;;;;;;;3.05;2.75;;;8.90;82.10;;;;;;5036012;28;20422;-66
2022/09/29 01:53:24;;;;;;;3.80;3.17;;;8.80;82.10;;;;;;5040664;28;20107;-66
2022/09/29 01:55:53;;;;;;;3.80;3.28;;;8.70;82.20;;;;;;5039835;28;20095;-66
2022/09/29 01:58:29;;;;;;;3.72;3.20;;;8.70;82.40;;;;;;5038250;28;20029;-66
2022/09/29 02:00:59;;;;;;;3.95;3.35;;;8.70;82.50;;;;;;5033085;28;20017;-66
2022/09/29 02:03:40;;;;;;;3.58;3.20;;;8.70;82.40;;;;;;5039015;28;20037;-66
2022/09/29 02:06:27;;;;;;;3.10;2.80;;;8.70;82.40;;;;;;5041236;28;20077;-66
2022/09/29 02:08:55;;;;;;;3.40;3.10;;;8.70;82.20;;;;;;5042822;28;20029;-65
2022/09/29 02:11:21;;;;;;;3.70;2.92;;;8.70;82.20;;;;;;5037553;28;20034;-65
2022/09/29 02:13:58;;;;;;;3.70;3.00;;;8.70;82.10;;;;;;5036757;28;20025;-65
2022/09/29 02:16:34;;;;;;;3.45;2.95;;;8.70;82.00;;;;;;5034444;28;20590;-66
2022/09/29 02:19:19;;;;;;;3.30;3.00;;;8.70;82.00;;;;;;5041183;28;20025;-65
2022/09/29 02:21:46;;;;;;;2.92;2.60;;;8.60;81.80;;;;;;5036775;28;20376;-65
2022/09/29 02:24:12;;;;;;;3.58;2.75;;;8.60;81.90;;;;;;5038815;28;20036;-65
2022/09/29 02:26:39;;;;;;;4.72;3.40;;;8.60;81.90;;;;;;5036473;28;20087;-65
2022/09/29 02:29:06;;;;;;;5.82;3.20;;;8.60;81.90;;;;;;5033796;28;20025;-65
2022/09/29 02:31:33;;;;;;;4.25;3.10;;;8.60;81.80;;;;;;5038116;28;20028;-65
2022/09/29 02:34:00;;;;;;;3.28;2.80;;;8.60;81.80;;;;;;5035599;28;20112;-65
2022/09/29 02:36:37;;;;;;;3.45;2.90;;;8.50;81.80;;;;;;5038817;28;20025;-65
2022/09/29 02:39:26;;;;;;;3.25;2.95;;;8.50;81.80;;;;;;5041664;28;20032;-65
2022/09/29 02:42:24;;;;;;;3.45;2.92;;;8.40;81.90;;;;;;5037255;28;20021;-65
2022/09/29 02:45:04;;;;;;;5.07;3.03;;;8.30;82.00;;;;;;5039687;28;20017;-65
2022/09/29 02:47:32;;;;;;;3.25;2.88;;;8.30;82.00;;;;;;5037018;28;20085;-65
2022/09/29 02:50:20;;;;;;;3.28;2.90;;;8.30;82.00;;;;;;5040955;28;20638;-66
2022/09/29 02:52:56;;;;;;;3.78;3.35;;;8.30;82.20;;;;;;5038878;28;20025;-66
2022/09/29 02:55:37;;;;;;;3.78;3.10;;;8.30;82.30;;;;;;5038374;28;20029;-67
2022/09/29 02:58:17;;;;;;;4.15;3.00;;;8.20;82.20;;;;;;5042488;28;20029;-66
2022/09/29 03:00:44;;;;;;;3.63;2.90;;;8.30;82.20;;;;;;5042622;28;20029;-66
2022/09/29 03:03:10;;;;;;;3.90;3.50;;;8.20;81.90;;;;;;5041297;28;20228;-66
2022/09/29 03:05:36;;;;;;;5.32;3.65;;;8.30;82.00;;;;;;5043599;28;20410;-66
2022/09/29 03:08:02;;;;;;;4.55;3.65;;;8.30;81.80;;;;;;5042024;28;20029;-65
2022/09/29 03:10:27;;;;;;;3.38;3.08;;;8.30;81.60;;;;;;5039049;28;20566;-65
2022/09/29 03:12:53;;;;;;;4.10;3.10;;;8.30;81.60;;;;;;5042693;28;20032;-65
2022/09/29 03:15:18;;;;;;;4.32;3.40;;;8.20;81.60;;;;;;5036690;28;20068;-65
2022/09/29 03:17:44;;;;;;;5.88;3.70;;;8.20;81.60;;;;;;5039679;28;20033;-65
2022/09/29 03:20:09;;;;;;;3.40;3.05;;;8.20;81.60;;;;;;5040438;28;20029;-65
2022/09/29 03:22:35;;;;;;;3.40;3.10;;;8.10;81.60;;;;;;5041360;28;20025;-65
2022/09/29 03:25:01;;;;;;;3.47;3.03;;;8.10;81.70;;;;;;5039150;28;20092;-65
2022/09/29 03:27:27;;;;;;;4.10;3.33;;;8.10;81.80;;;;;;5039132;28;20037;-66
2022/09/29 03:29:52;;;;;;;4.20;3.28;;;8.10;81.90;;;;;;5043184;28;20029;-66
2022/09/29 03:32:18;;;;;;;3.90;3.35;;;8.10;81.80;;;;;;5045292;28;20032;-66
2022/09/29 03:34:44;;;;;;;4.88;3.58;;;8.10;81.80;;;;;;5046330;28;20024;-66
2022/09/29 03:37:09;;;;;;;4.82;4.22;;;8.10;81.80;;;;;;5040870;28;20029;-65
2022/09/29 03:39:35;;;;;;;5.20;3.67;;;8.10;81.80;;;;;;5044334;28;20037;-65
2022/09/29 03:42:01;;;;;;;3.63;3.10;;;8.10;81.70;;;;;;5035325;28;20023;-64
2022/09/29 03:44:26;;;;;;;4.22;3.17;;;8.10;81.60;;;;;;5043081;28;20040;-65
2022/09/29 03:46:52;;;;;;;4.38;3.67;;;8.10;81.70;;;;;;5039068;28;20022;-65
2022/09/29 03:49:18;;;;;;;4.45;3.95;;;8.00;81.70;;;;;;5035986;28;20022;-64
2022/09/29 03:51:43;;;;;;;4.90;3.30;;;8.00;81.90;;;;;;5043179;28;20183;-64
2022/09/29 03:54:10;;;;;;;5.40;3.72;;;8.00;82.00;;;;;;5041745;28;20159;-65
2022/09/29 03:56:36;;;;;;;4.85;4.00;;;8.00;81.90;;;;;;5039255;28;20555;-64
2022/09/29 03:59:04;;;;;;;5.50;4.03;;;8.00;81.80;;;;;;5034701;28;20492;-65
2022/09/29 04:01:30;;;;;;;4.40;3.63;;;8.10;81.70;;;;;;5039531;28;20036;-65
2022/09/29 04:03:57;;;;;;;4.38;3.85;;;8.10;81.60;;;;;;5036170;28;20092;-64
2022/09/29 04:06:22;;;;;;;4.47;4.00;;;8.00;81.50;;;;;;5037576;28;20029;-66
2022/09/29 04:08:49;;;;;;;4.78;4.20;;;8.00;81.60;;;;;;5043793;28;20021;-66
2022/09/29 04:11:14;;;;;;;5.20;4.13;;;8.10;81.50;;;;;;5037163;28;20025;-66
2022/09/29 04:13:40;;;;;;;5.28;4.47;;;8.10;81.40;;;;;;5045571;28;20044;-66
2022/09/29 04:16:06;;;;;;;4.10;3.67;;;8.10;81.30;;;;;;5035007;28;20103;-66
2022/09/29 04:18:32;;;;;;;4.18;3.72;;;8.10;81.30;;;;;;5035239;28;20433;-66
2022/09/29 04:21:01;;;;;;;4.85;4.00;;;8.00;81.50;;;;;;5038274;28;20101;-67
2022/09/29 04:23:29;;;;;;;5.22;4.25;;;8.00;81.50;;;;;;5047940;28;20074;-66
2022/09/29 04:25:55;;;;;;;4.60;4.10;;;8.00;81.70;;;;;;5034017;28;20538;-66
2022/09/29 04:28:21;;;;;;;5.00;4.10;;;8.00;81.80;;;;;;5045720;28;20025;-66
2022/09/29 04:30:47;;;;;;;4.90;4.40;;;8.00;81.60;;;;;;5041848;28;20462;-66
2022/09/29 04:33:12;;;;;;;4.35;3.95;;;8.00;81.60;;;;;;5037409;28;20032;-65
2022/09/29 04:35:38;;;;;;;4.15;3.70;;;8.00;81.60;;;;;;5037059;28;20036;-65
2022/09/29 04:38:04;;;;;;;5.13;3.90;;;8.00;81.60;;;;;;5033482;28;20032;-66
2022/09/29 04:40:30;;;;;;;4.50;3.85;;;7.90;81.70;;;;;;5041603;28;20029;-66
2022/09/29 04:42:55;;;;;;;4.68;4.10;;;7.90;81.80;;;;;;5040533;28;20036;-66
2022/09/29 04:45:21;;;;;;;5.55;4.28;;;7.90;81.80;;;;;;5042578;28;20060;-66
2022/09/29 04:47:46;;;;;;;4.75;4.25;;;7.90;81.80;;;;;;5036071;28;20025;-66
2022/09/29 04:50:12;;;;;;;5.75;4.10;;;7.90;81.60;;;;;;5038036;28;20025;-65
2022/09/29 04:52:42;;;;;;;6.15;4.07;;;7.90;81.60;;;;;;5040274;28;20021;-65
2022/09/29 04:55:10;;;;;;;5.75;4.07;;;8.00;81.70;;;;;;5038399;28;20104;-65
2022/09/29 04:57:40;;;;;;;6.22;4.38;;;8.00;81.70;;;;;;5039532;28;20033;-65
2022/09/29 05:00:07;;;;;;;5.78;3.78;;;8.00;81.70;;;;;;5040435;28;20111;-65
2022/09/29 05:02:34;;;;;;;5.00;3.83;;;8.10;81.60;;;;;;5037224;28;20165;-65
2022/09/29 05:05:00;;;;;;;5.78;3.90;;;8.10;81.50;;;;;;5039876;28;20420;-64
2022/09/29 05:07:26;;;;;;;8.18;4.05;;;8.10;81.50;;;;;;5038726;28;20072;-65
2022/09/29 05:09:51;;;;;;;5.45;4.10;;;8.10;81.40;;;;;;5039791;28;20036;-65
2022/09/29 05:12:17;;;;;;;6.65;3.92;;;8.00;81.60;;;;;;5035307;28;20038;-65
2022/09/29 05:14:43;;;;;;;6.05;3.70;;;8.10;81.70;;;;;;5035939;28;20023;-65
2022/09/29 05:17:08;;;;;;;6.53;3.67;;;8.10;81.70;;;;;;5038261;28;20104;-65
2022/09/29 05:19:34;;;;;;;10.35;4.55;;;8.10;81.60;;;;;;5034141;28;20105;-65
2022/09/29 05:22:01;;;;;;;9.75;3.50;;;8.10;81.60;;;;;;5040312;28;20025;-65
2022/09/29 05:24:26;;;;;;;6.20;3.40;;;8.10;81.50;;;;;;5036834;28;20033;-65
2022/09/29 05:26:52;;;;;;;12.63;3.97;;;8.20;81.50;;;;;;5037262;28;20052;-66
2022/09/29 05:29:18;;;;;;;6.53;3.83;;;8.10;81.50;;;;;;5040375;28;20483;-66
2022/09/29 05:31:44;;;;;;;5.90;3.65;;;8.10;81.40;;;;;;5038420;28;20021;-67
2022/09/29 05:34:09;;;;;;;6.65;3.50;;;8.20;81.40;;;;;;5037082;28;20676;-67
2022/09/29 05:36:35;;;;;;;6.32;3.60;;;8.20;81.40;;;;;;5037366;28;20108;-66
2022/09/29 05:39:01;;;;;;;3.53;3.20;;;8.10;81.40;;;;;;5035576;28;20025;-66
2022/09/29 05:41:26;;;;;;;4.72;3.13;;;8.10;81.60;;;;;;5034060;28;20033;-66
2022/09/29 05:43:53;;;;;;;3.47;2.95;;;8.10;81.70;;;;;;5037439;28;20032;-66
2022/09/29 05:46:20;;;;;;;5.80;3.45;;;8.10;81.80;;;;;;5041466;28;20029;-66
2022/09/29 05:48:47;;;;;;;4.20;3.47;;;8.10;81.80;;;;;;5045066;28;20395;-66
2022/09/29 05:51:16;;;;;;;4.53;3.67;;;8.10;81.70;;;;;;5039101;28;20032;-66
2022/09/29 05:53:42;;;;;;;5.88;3.53;;;8.10;81.60;;;;;;5048240;28;20033;-66
2022/09/29 05:56:14;;;;;;;6.13;3.78;;;8.20;81.60;;;;;;5034106;28;20495;-66
2022/09/29 05:58:40;;;;;;;6.82;4.28;;;8.20;81.50;;;;;;5039968;28;20120;-64
2022/09/29 06:01:15;;;;;;;6.00;4.15;;;8.20;81.40;;;;;;5043511;28;20562;-66
2022/09/29 06:03:41;;;;;;;6.80;4.00;;;8.20;81.30;;;;;;5040993;28;20033;-65
2022/09/29 06:06:09;;;;;;;5.90;3.97;;;8.20;81.40;;;;;;5052715;28;20494;-65
2022/09/29 06:08:34;;;;;;;7.13;4.43;;;8.20;81.30;;;;;;5041972;28;20033;-65
2022/09/29 06:11:05;;;;;;;7.53;4.53;;;8.30;81.20;;;;;;5046699;28;20484;-65
2022/09/29 06:13:31;;;;;;;7.03;4.45;;;8.30;81.00;;;;;;5046174;28;20681;-65
2022/09/29 06:16:00;;;;;;;6.22;4.35;;;8.30;81.10;;;;;;5054726;28;20029;-65
2022/09/29 06:18:25;;;;;;;5.80;4.43;;;8.30;81.10;;;;;;5063569;28;20052;-65
2022/09/29 06:20:51;;;;;;;5.05;4.18;;;8.30;81.10;;;;;;5042167;28;20056;-65
2022/09/29 06:23:16;;;;;;;6.32;4.15;;;8.40;81.10;;;;;;5046543;28;20025;-65
2022/09/29 06:25:42;;;;;;;6.40;4.22;;;8.40;81.00;;;;;;5039961;28;20032;-65
2022/09/29 06:31:14;;;;;;;5.90;4.45;;;8.50;80.30;;;;;;5068225;28;20402;-64
2022/09/29 06:33:40;;;;;;;8.15;5.97;;;8.40;80.40;;;;;;5071069;28;20060;-64
2022/09/29 06:39:09;;;;;;;8.05;5.50;;;8.50;80.80;;;;;;5061961;28;20056;-64
2022/09/29 06:41:35;;;;;;;6.45;4.35;;;8.60;80.70;;;;;;5065268;28;20021;-64
2022/09/29 06:44:01;;;;;;;5.10;4.10;;;8.70;80.70;;;;;;5062443;28;20641;-64
2022/09/29 06:46:27;;;;;;;6.40;5.15;;;8.70;80.60;;;;;;5062479;28;20037;-64
2022/09/29 06:48:53;;;;;;;18.83;5.57;;;8.80;80.60;;;;;;5068534;28;20115;-64
2022/09/29 06:51:23;;;;;;;10.70;5.40;;;8.90;80.60;;;;;;5068978;28;20067;-64
2022/09/29 10:07:30;;;;;;;21.17;15.55;;;10.30;89.00;;;;;;5094899;27;20431;-83
2022/09/29 10:10:01;;;;;;;21.02;16.67;;;10.30;89.20;;;;;;5086122;28;20230;-85
2022/09/29 10:12:27;;;;;;;26.63;21.15;;;10.60;90.30;;;;;;5083512;28;20028;-85
2022/09/29 10:15:16;;;;;;;23.58;19.80;;;10.80;90.70;;;;;;5085035;28;20499;-86
2022/09/29 10:17:45;;;;;;;24.42;18.75;;;11.10;90.80;;;;;;5083675;28;20020;-85
2022/09/29 10:20:12;;;;;;;23.27;19.45;;;11.30;90.70;;;;;;5082149;28;20028;-85
2022/09/29 10:22:38;;;;;;;21.00;16.80;;;11.50;90.20;;;;;;5085053;28;20031;-84
2022/09/29 10:25:15;;;;;;;18.85;15.63;;;11.70;90.10;;;;;;5083097;28;20024;-86
2022/09/29 10:27:56;;;;;;;16.98;14.70;;;12.00;89.80;;;;;;5082555;28;20427;-86
2022/09/29 10:30:32;;;;;;;21.77;18.02;;;12.20;89.10;;;;;;5083876;28;20120;-86
2022/09/29 10:33:00;;;;;;;15.55;13.00;;;12.40;88.10;;;;;;5087201;28;20080;-85
2022/09/29 10:35:35;;;;;;;16.05;13.35;;;12.50;87.50;;;;;;5079864;28;20115;-84
2022/09/29 10:38:22;;;;;;;15.65;13.27;;;12.70;87.00;;;;;;5079692;28;20028;-85
2022/09/29 10:41:02;;;;;;;14.05;12.27;;;12.90;86.30;;;;;;5084187;28;20051;-83
2022/09/29 10:43:48;;;;;;;11.25;9.60;;;13.00;85.20;;;;;;5084997;28;20036;-82
2022/09/29 10:46:38;;;;;;;14.50;12.85;;;13.10;84.50;;;;;;5085889;28;20043;-85
2022/09/29 10:49:20;;;;;;;11.73;10.13;;;13.30;83.50;;;;;;5077726;28;20039;-86
2022/09/29 10:51:54;;;;;;;;;;;13.40;82.60;;;;;;5082319;28;20091;-83
2022/09/29 10:54:24;;;;;;;12.95;11.27;;;13.50;82.50;;;;;;5084957;28;19913;-83
2022/09/29 10:56:50;;;;;;;11.43;10.07;;;13.60;82.00;;;;;;5083493;28;20391;-83
2022/09/29 10:59:19;;;;;;;9.90;8.80;;;13.80;81.80;;;;;;5086373;28;20024;-84
2022/09/29 11:01:52;;;;;;;9.70;8.05;;;14.00;81.50;;;;;;5087616;28;20028;-84
2022/09/29 11:04:30;;;;;;;9.23;8.18;;;14.10;81.20;;;;;;5088452;28;20595;-84
2022/09/29 11:06:56;;;;;;;10.82;7.78;;;14.20;80.80;;;;;;5083344;28;20032;-84
2022/09/29 11:09:25;;;;;;;10.68;9.57;;;14.30;80.10;;;;;;5082131;28;20031;-84
2022/09/29 11:11:53;;;;;;;10.88;8.45;;;14.30;78.60;;;;;;5086412;28;20115;-85
2022/09/29 11:14:40;;;;;;;10.20;8.13;;;14.40;77.50;;;;;;5083868;28;20068;-85
2022/09/29 11:17:27;;;;;;;12.20;8.60;;;14.40;77.30;;;;;;5078744;28;20018;-84
2022/09/29 11:19:57;;;;;;;8.85;7.32;;;14.50;77.20;;;;;;5070024;28;20043;-84
2022/09/29 11:22:31;;;;;;;7.13;6.32;;;14.50;75.50;;;;;;5069269;28;20714;-86
2022/09/29 11:25:14;;;;;;;6.97;5.40;;;14.60;75.90;;;;;;5071621;28;20380;-87
2022/09/29 11:28:12;;;;;;;6.53;4.80;;;14.70;75.70;;;;;;5068642;28;20567;-83
2022/09/29 11:30:40;;;;;;;6.75;5.28;;;14.90;75.50;;;;;;5073373;28;20483;-84
2022/09/29 11:33:34;;;;;;;5.82;4.57;;;15.00;75.20;;;;;;5072114;28;20109;-83
2022/09/29 11:36:17;;;;;;;5.45;4.15;;;15.10;74.50;;;;;;5069577;28;20097;-82
2022/09/29 11:39:05;;;;;;;6.80;5.95;;;15.20;74.50;;;;;;5066308;28;20165;-84
2022/09/29 11:41:52;;;;;;;5.85;4.45;;;15.10;73.10;;;;;;5069594;28;20395;-83
2022/09/29 11:44:44;;;;;;;3.05;2.75;;;15.30;72.30;;;;;;5069542;28;20078;-83
2022/09/29 11:47:25;;;;;;;3.40;2.40;;;15.50;72.20;;;;;;5069714;28;20111;-82
2022/09/29 11:50:06;;;;;;;4.20;3.40;;;15.70;71.80;;;;;;5066592;28;20278;-82
2022/09/29 11:52:56;;;;;;;3.97;3.13;;;15.90;70.10;;;;;;5068301;28;20028;-83
2022/09/29 11:55:42;;;;;;;6.13;4.32;;;16.00;69.60;;;;;;5068838;28;20028;-83
2022/09/29 11:58:30;;;;;;;4.40;3.63;;;16.10;68.40;;;;;;5066953;28;20078;-82
2022/09/29 12:01:20;;;;;;;2.92;2.60;;;16.20;67.10;;;;;;5066437;28;20029;-82
2022/09/29 12:04:08;;;;;;;3.67;3.08;;;16.20;63.10;;;;;;5066332;28;20025;-82
2022/09/29 12:06:47;;;;;;;3.55;2.90;;;16.20;63.80;;;;;;5067908;28;20072;-82
2022/09/29 12:09:21;;;;;;;4.95;4.45;;;16.30;65.00;;;;;;5066829;28;20349;-83
2022/09/29 12:11:56;;;;;;;4.43;3.97;;;16.40;65.10;;;;;;5068726;28;20039;-83
2022/09/29 12:14:39;;;;;;;6.45;5.38;;;16.60;65.60;;;;;;5068173;28;20124;-82
2022/09/29 12:17:13;;;;;;;5.00;4.20;;;16.60;63.90;;;;;;5065199;28;20035;-82
2022/09/29 12:19:41;;;;;;;7.00;5.80;;;16.70;64.70;;;;;;5066447;28;20086;-84
2022/09/29 12:22:10;;;;;;;4.95;3.92;;;16.80;64.00;;;;;;5066491;28;20662;-82
2022/09/29 12:24:54;;;;;;;5.03;3.40;;;16.90;64.30;;;;;;5061623;28;20048;-82
2022/09/29 12:27:35;;;;;;;4.22;3.33;;;17.00;64.50;;;;;;5066143;28;20044;-82
2022/09/29 12:30:12;;;;;;;3.80;3.17;;;17.00;63.70;;;;;;5064227;28;20032;-82
2022/09/29 12:32:45;;;;;;;4.38;3.55;;;17.00;63.80;;;;;;5067606;28;20109;-84
2022/09/29 12:35:16;;;;;;;4.53;4.07;;;17.20;63.50;;;;;;5067101;28;20039;-83
2022/09/29 12:38:10;;;;;;;3.85;3.10;;;17.20;62.20;;;;;;5068083;28;20021;-83
2022/09/29 12:40:45;;;;;;;3.83;2.70;;;17.40;62.60;;;;;;5061413;28;20479;-84
2022/09/29 12:43:24;;;;;;;3.00;2.70;;;17.60;62.40;;;;;;5063821;28;20029;-84
2022/09/29 12:46:19;;;;;;;3.55;3.05;;;17.70;62.30;;;;;;5057320;28;20058;-83
2022/09/29 12:49:20;;;;;;;3.65;2.40;;;17.90;61.40;;;;;;5062554;28;20016;-83
2022/09/29 12:51:48;;;;;;;2.20;2.00;;;17.90;60.50;;;;;;5059564;28;20036;-84
2022/09/29 12:54:40;;;;;;;3.20;2.30;;;17.80;60.60;;;;;;5064505;28;20086;-83
2022/09/29 12:57:15;;;;;;;3.28;2.38;;;17.70;59.30;;;;;;5067370;28;21894;-83
2022/09/29 12:59:56;;;;;;;2.10;1.90;;;17.70;59.40;;;;;;5065438;28;20423;-84
2022/09/29 13:02:21;;;;;;;2.22;1.70;;;17.70;59.20;;;;;;5070507;28;20035;-84
2022/09/29 13:05:24;;;;;;;2.25;1.70;;;17.90;59.10;;;;;;5069958;28;20024;-83
2022/09/29 13:08:25;;;;;;;2.65;2.00;;;18.00;58.80;;;;;;5065235;28;20032;-82
2022/09/29 13:11:12;;;;;;;4.03;2.70;;;18.30;58.10;;;;;;5059443;28;20032;-83
2022/09/29 13:14:00;;;;;;;2.05;1.73;;;18.10;55.90;;;;;;5064149;28;20028;-87
2022/09/29 13:16:51;;;;;;;1.90;1.50;;;18.20;56.90;;;;;;5066917;28;20487;-84
2022/09/29 13:19:30;;;;;;;1.48;1.38;;;18.40;56.90;;;;;;5061728;28;20128;-84
2022/09/29 13:22:20;;;;;;;1.50;1.38;;;18.50;57.10;;;;;;5064097;28;20029;-83
2022/09/29 13:25:11;;;;;;;5.65;3.40;;;18.50;57.00;;;;;;5063255;28;20036;-82
2022/09/29 13:27:41;;;;;;;4.32;2.03;;;18.40;57.30;;;;;;5062532;28;20040;-82
2022/09/29 13:30:26;;;;;;;1.70;1.60;;;18.30;57.60;;;;;;5057117;28;20048;-82
2022/09/29 13:33:18;;;;;;;2.03;1.60;;;18.30;57.70;;;;;;5063977;28;20024;-83
2022/09/29 13:35:47;;;;;;;1.95;1.50;;;18.50;57.80;;;;;;5065172;28;20073;-82
2022/09/29 13:38:28;;;;;;;1.80;1.50;;;18.70;57.70;;;;;;5059405;28;20032;-83
2022/09/29 13:41:34;;;;;;;1.48;1.38;;;18.90;57.30;;;;;;5060144;28;20491;-85
2022/09/29 13:44:02;;;;;;;1.45;1.35;;;19.10;56.80;;;;;;5061213;28;20021;-85
2022/09/29 13:46:31;;;;;;;1.30;1.15;;;19.30;56.60;;;;;;5064909;28;20471;-84
2022/09/29 13:49:12;;;;;;;1.65;1.55;;;19.40;56.20;;;;;;5061324;28;20020;-86
2022/09/29 13:51:45;;;;;;;1.27;1.17;;;19.50;55.90;;;;;;5067192;28;20374;-86
2022/09/29 13:54:30;;;;;;;1.90;1.70;;;19.60;55.50;;;;;;5065180;28;20082;-89
2022/09/29 13:57:19;;;;;;;1.77;1.58;;;19.50;54.20;;;;;;5065032;28;20104;-89
2022/09/29 13:59:46;;;;;;;1.98;1.20;;;19.40;53.40;;;;;;5058817;28;20035;-88
2022/09/29 14:02:31;;;;;;;1.58;1.30;;;19.40;54.00;;;;;;5066786;28;20033;-88
2022/09/29 14:04:57;;;;;;;2.58;1.77;;;19.50;54.20;;;;;;5060266;28;20507;-88
2022/09/29 14:07:43;;;;;;;1.92;1.40;;;19.40;54.50;;;;;;5063438;28;20032;-87
2022/09/29 14:10:24;;;;;;;1.25;1.15;;;19.30;54.50;;;;;;5063216;28;20024;-86
2022/09/29 14:13:02;;;;;;;1.65;1.30;;;19.30;54.50;;;;;;5059029;28;20025;-87
2022/09/29 14:15:35;;;;;;;1.20;1.10;;;19.20;54.10;;;;;;5063142;28;20475;-87
2022/09/29 14:18:05;;;;;;;1.50;1.30;;;19.00;54.40;;;;;;5060237;28;20372;-86
2022/09/29 14:20:33;;;;;;;2.03;1.20;;;18.90;54.70;;;;;;5061893;28;20395;-86
2022/09/29 14:23:07;;;;;;;1.20;1.10;;;18.80;54.70;;;;;;5067390;28;20124;-87
2022/09/29 14:25:49;;;;;;;1.10;1.00;;;18.80;54.80;;;;;;5061073;28;20032;-86
2022/09/29 14:28:42;;;;;;;1.55;1.20;;;18.70;55.20;;;;;;5062961;28;20048;-86
2022/09/29 14:31:19;;;;;;;1.05;0.90;;;18.60;55.30;;;;;;5059184;28;20039;-86
2022/09/29 14:33:48;;;;;;;2.17;1.25;;;18.60;55.60;;;;;;5064137;28;20028;-87
2022/09/29 14:36:18;;;;;;;1.83;1.25;;;18.50;55.40;;;;;;5064760;28;20024;-87
2022/09/29 14:38:48;;;;;;;1.45;1.20;;;18.40;55.50;;;;;;5063641;28;20028;-86
2022/09/29 14:41:33;;;;;;;3.28;1.33;;;18.30;55.80;;;;;;5057528;28;20039;-87
2022/09/29 14:44:07;;;;;;;1.70;1.17;;;18.20;56.00;;;;;;5065477;28;20028;-86
2022/09/29 14:52:50;;;;;;;1.25;1.00;;;17.80;56.90;;;;;;5063369;28;20098;-87
2022/09/29 14:55:22;;;;;;;1.67;0.90;;;17.60;57.50;;;;;;5067699;28;20115;-86
2022/09/29 14:57:53;;;;;;;1.50;0.90;;;17.50;57.70;;;;;;5068719;28;20034;-86
2022/09/29 15:00:32;;;;;;;0.90;0.90;;;17.40;58.10;;;;;;5067864;28;20451;-86
2022/09/29 15:03:00;;;;;;;1.00;1.00;;;17.30;58.20;;;;;;5067671;28;20431;-86
2022/09/29 15:05:29;;;;;;;1.15;0.93;;;17.30;58.50;;;;;;5065006;28;20043;-87
2022/09/29 15:07:56;;;;;;;1.48;1.10;;;17.20;58.70;;;;;;5066219;28;20028;-86
2022/09/29 15:10:29;;;;;;;1.70;1.10;;;17.20;58.80;;;;;;5068853;28;20031;-86
2022/09/29 15:13:30;;;;;;;2.15;1.00;;;17.10;58.90;;;;;;5065104;28;20048;-87
2022/09/29 15:16:03;;;;;;;1.35;0.95;;;17.10;59.10;;;;;;5054427;28;20093;-86
2022/09/29 15:19:01;;;;;;;3.60;0.93;;;17.10;59.00;;;;;;5066677;28;20093;-87
2022/09/29 15:21:48;;;;;;;1.00;0.95;;;17.10;59.00;;;;;;5064999;28;20032;-87
2022/09/29 15:24:14;;;;;;;1.40;1.10;;;17.10;59.00;;;;;;5069321;28;20044;-86
2022/09/29 15:26:41;;;;;;;1.02;0.90;;;17.20;59.10;;;;;;5063397;28;20186;-85
2022/09/29 15:29:13;;;;;;;1.17;1.00;;;17.10;58.80;;;;;;5064437;28;20021;-86
2022/09/29 15:31:42;;;;;;;1.73;1.27;;;17.10;58.80;;;;;;5066695;28;20047;-86
2022/09/29 15:34:14;;;;;;;2.00;1.65;;;17.10;58.80;;;;;;5094787;28;20032;-85
2022/09/29 15:36:40;;;;;;;1.65;1.40;;;17.10;58.80;;;;;;5059988;28;21605;-86
2022/09/29 15:39:32;;;;;;;1.40;1.30;;;17.10;58.90;;;;;;5061058;28;20063;-87
2022/09/29 15:42:00;;;;;;;1.50;1.40;;;17.10;59.00;;;;;;5066124;28;20056;-86
2022/09/29 15:44:28;;;;;;;1.70;1.30;;;17.10;59.30;;;;;;5067845;28;20024;-86
2022/09/29 15:46:57;;;;;;;1.13;1.02;;;17.10;59.30;;;;;;5066517;28;20131;-86
2022/09/29 15:49:27;;;;;;;1.45;1.02;;;17.10;59.10;;;;;;5066267;28;20458;-86
2022/09/29 15:52:01;;;;;;;1.40;1.20;;;17.10;59.10;;;;;;5067488;28;20094;-86
2022/09/29 15:54:33;;;;;;;1.63;1.30;;;17.10;59.10;;;;;;5063846;28;20033;-87
2022/09/29 15:59:54;;;;;;;1.63;0.93;;;17.10;58.90;;;;;;5067797;28;20063;-87
2022/09/29 16:02:25;;;;;;;1.13;1.02;;;17.10;58.80;;;;;;5058182;28;20033;-86
2022/09/29 16:04:57;;;;;;;0.80;0.80;;;17.10;59.00;;;;;;5067938;28;20457;-87
2022/09/29 16:07:27;;;;;;;;;;;17.10;58.90;;;;;;5067259;28;20036;-87
2022/09/29 16:09:58;;;;;;;1.35;1.15;;;17.20;59.10;;;;;;5060420;28;19913;-87
2022/09/29 16:12:25;;;;;;;1.85;1.52;;;17.10;59.00;;;;;;5064307;28;20031;-86
2022/09/29 16:14:54;;;;;;;1.50;1.40;;;17.10;58.70;;;;;;5066997;28;20089;-85
2022/09/29 16:17:20;;;;;;;2.00;1.80;;;17.10;58.60;;;;;;5067186;28;20505;-85
2022/09/29 16:19:48;;;;;;;1.75;1.65;;;17.10;58.60;;;;;;5065650;28;20032;-85
2022/09/29 16:22:20;;;;;;;2.20;2.00;;;17.10;58.60;;;;;;5063901;28;20411;-86
2022/09/29 16:25:18;;;;;;;2.30;2.10;;;17.10;58.50;;;;;;5066796;28;20471;-84
2022/09/29 16:27:56;;;;;;;3.03;2.22;;;17.00;58.40;;;;;;5065907;28;20041;-85
2022/09/29 16:30:34;;;;;;;2.28;2.08;;;17.10;58.40;;;;;;5066980;28;20490;-85
2022/09/29 16:33:20;;;;;;;2.58;2.20;;;17.00;58.40;;;;;;5064961;28;20031;-84
2022/09/29 16:35:52;;;;;;;1.88;1.70;;;17.10;58.50;;;;;;5066712;28;20107;-86
2022/09/29 16:38:24;;;;;;;2.60;2.03;;;17.00;58.40;;;;;;5065142;28;20387;-87
2022/09/29 16:40:51;;;;;;;2.20;2.00;;;17.00;58.50;;;;;;5059884;28;20024;-86
2022/09/29 16:43:24;;;;;;;2.25;1.95;;;17.00;58.50;;;;;;5063362;28;20024;-86
2022/09/29 16:45:55;;;;;;;2.70;1.98;;;17.00;58.20;;;;;;5066115;28;20111;-87
2022/09/29 16:48:28;;;;;;;2.10;1.90;;;16.90;58.40;;;;;;5062895;28;20036;-86
2022/09/29 16:50:56;;;;;;;1.63;1.52;;;16.90;58.60;;;;;;5063218;28;20142;-86
2022/09/29 16:53:31;;;;;;;1.83;1.70;;;16.80;58.80;;;;;;5064807;28;20127;-86